createdAt,value
2023-01-12T00:00:18.180Z,70.7
2023-01-12T00:01:34.372Z,70.7
2023-01-12T00:02:50.562Z,70.6
2023-01-12T00:04:05.765Z,70.6
2023-01-12T00:05:21.728Z,70.6
2023-01-12T00:06:38.150Z,70.6
2023-01-12T00:07:54.327Z,70.7
2023-01-12T00:09:10.288Z,70.6
2023-01-12T00:10:26.719Z,70.6
2023-01-12T00:11:42.897Z,70.7
2023-01-12T00:12:58.848Z,70.8
2023-01-12T00:14:15.277Z,70.6
2023-01-12T00:15:31.462Z,70.7
2023-01-12T00:16:47.667Z,70.7
2023-01-12T00:18:03.598Z,70.8
2023-01-12T00:19:20.027Z,70.6
2023-01-12T00:20:35.248Z,70.7
2023-01-12T00:21:51.185Z,70.9
2023-01-12T00:23:07.632Z,70.7
2023-01-12T00:24:23.803Z,70.6
2023-01-12T00:25:39.994Z,70.7
2023-01-12T00:26:56.183Z,70.7
2023-01-12T00:28:12.134Z,70.5
2023-01-12T00:29:28.566Z,70.7
2023-01-12T00:30:44.760Z,70.6
2023-01-12T00:32:00.698Z,70.7
2023-01-12T00:33:16.884Z,70.9
2023-01-12T00:34:33.320Z,70.6
2023-01-12T00:35:49.522Z,70.9
2023-01-12T00:37:04.475Z,70.8
2023-01-12T00:38:20.904Z,70.5
2023-01-12T00:39:37.096Z,70.8
2023-01-12T00:40:53.280Z,70.7
2023-01-12T00:42:09.484Z,70.8
2023-01-12T00:43:25.658Z,70.7
2023-01-12T00:44:41.855Z,70.7
2023-01-12T00:45:58.048Z,70.8
2023-01-12T00:47:14.226Z,70.7
2023-01-12T00:48:30.415Z,70.9
2023-01-12T00:49:46.603Z,70.8
2023-01-12T00:51:02.795Z,70.8
2023-01-12T00:52:18.742Z,70.7
2023-01-12T00:53:34.205Z,70.6
2023-01-12T00:54:50.382Z,70.7
2023-01-12T00:56:06.579Z,70.8
2023-01-12T00:57:22.759Z,70.6
2023-01-12T00:58:38.697Z,70.7
2023-01-12T00:59:55.146Z,70.9
2023-01-12T01:01:11.080Z,70.6
2023-01-12T01:02:27.527Z,70.7
2023-01-12T01:03:43.720Z,70.8
2023-01-12T01:04:59.643Z,70.9
2023-01-12T01:06:16.082Z,70.7
2023-01-12T01:07:32.281Z,70.7
2023-01-12T01:08:48.477Z,70.9
2023-01-12T01:10:03.667Z,70.7
2023-01-12T01:11:19.868Z,70.7
2023-01-12T01:12:35.796Z,70.8
2023-01-12T01:13:51.989Z,70.8
2023-01-12T01:15:08.433Z,70.6
2023-01-12T01:16:24.625Z,70.7
2023-01-12T01:17:40.816Z,70.7
2023-01-12T01:18:56.996Z,70.8
2023-01-12T01:20:12.933Z,70.8
2023-01-12T01:21:29.373Z,70.7
2023-01-12T01:22:45.562Z,70.6
2023-01-12T01:24:01.750Z,70.6
2023-01-12T01:25:17.943Z,70.7
2023-01-12T01:26:33.141Z,70.8
2023-01-12T01:27:49.331Z,70.9
2023-01-12T01:29:05.531Z,70.7
2023-01-12T01:30:21.726Z,70.6
2023-01-12T01:31:37.911Z,70.6
2023-01-12T01:32:54.097Z,70.8
2023-01-12T01:34:10.289Z,70.7
2023-01-12T01:35:26.470Z,70.7
2023-01-12T01:36:42.680Z,70.6
2023-01-12T01:37:58.599Z,71
2023-01-12T01:39:15.049Z,70.6
2023-01-12T01:40:31.233Z,70.9
2023-01-12T01:41:47.000Z,70.6
2023-01-12T01:43:02.634Z,70.6
2023-01-12T01:44:18.564Z,70.4
2023-01-12T01:45:34.996Z,70.6
2023-01-12T01:46:51.187Z,70.4
2023-01-12T01:48:07.378Z,70.6
2023-01-12T01:49:23.570Z,70.7
2023-01-12T01:50:39.760Z,70.7
2023-01-12T01:51:55.679Z,70.6
2023-01-12T01:53:12.134Z,70.6
2023-01-12T01:54:28.317Z,70.8
2023-01-12T01:55:44.493Z,70.4
2023-01-12T01:57:00.690Z,70.5
2023-01-12T01:58:16.886Z,70.6
2023-01-12T01:59:32.081Z,70.7
2023-01-12T02:00:48.262Z,70.4
2023-01-12T02:02:04.453Z,70.6
2023-01-12T02:03:20.653Z,70.5
2023-01-12T02:04:36.832Z,70.6
2023-01-12T02:05:53.021Z,70.6
2023-01-12T02:07:08.934Z,70.6
2023-01-12T02:08:25.402Z,70.6
2023-01-12T02:09:41.316Z,70.7
2023-01-12T02:10:57.495Z,70.6
2023-01-12T02:12:13.959Z,70.6
2023-01-12T02:13:30.145Z,70.3
2023-01-12T02:14:46.067Z,70.5
2023-01-12T02:16:01.262Z,70.6
2023-01-12T02:17:17.724Z,70.6
2023-01-12T02:18:33.905Z,70.8
2023-01-12T02:19:49.828Z,70.5
2023-01-12T02:21:06.293Z,70.6
2023-01-12T02:22:22.479Z,70.6
2023-01-12T02:23:38.652Z,70.5
2023-01-12T02:24:54.584Z,70.3
2023-01-12T02:26:11.033Z,70.3
2023-01-12T02:27:27.233Z,70.3
2023-01-12T02:28:43.404Z,70.5
2023-01-12T02:29:59.598Z,70.5
2023-01-12T02:31:15.780Z,70.4
2023-01-12T02:32:30.989Z,70.4
2023-01-12T02:33:47.175Z,70.4
2023-01-12T02:35:03.357Z,70.3
2023-01-12T02:36:19.285Z,70.5
2023-01-12T02:37:35.737Z,70.4
2023-01-12T02:38:51.918Z,70.3
2023-01-12T02:40:07.155Z,70.4
2023-01-12T02:41:23.053Z,70.5
2023-01-12T02:42:39.513Z,70.4
2023-01-12T02:43:55.690Z,70.5
2023-01-12T02:45:11.613Z,70.4
2023-01-12T02:46:27.807Z,70.5
2023-01-12T02:47:44.270Z,70.6
2023-01-12T02:49:00.457Z,70.6
2023-01-12T02:50:16.355Z,70.3
2023-01-12T02:51:32.824Z,70.4
2023-01-12T02:52:48.739Z,70.5
2023-01-12T02:54:04.915Z,70.5
2023-01-12T02:55:21.106Z,70.5
2023-01-12T02:56:36.588Z,70.4
2023-01-12T02:57:52.771Z,70.4
2023-01-12T02:59:08.973Z,70.4
2023-01-12T03:00:24.874Z,70.5
2023-01-12T03:01:41.070Z,70.4
2023-01-12T03:02:57.519Z,70.5
2023-01-12T03:04:13.715Z,70.3
2023-01-12T03:05:29.898Z,70.4
2023-01-12T03:06:45.824Z,70.6
2023-01-12T03:08:01.997Z,70.5
2023-01-12T03:09:18.462Z,70.6
2023-01-12T03:10:34.657Z,70.5
2023-01-12T03:11:50.835Z,70.4
2023-01-12T03:13:06.035Z,70.5
2023-01-12T03:14:22.224Z,70.5
2023-01-12T03:15:38.141Z,70.5
2023-01-12T03:16:54.607Z,70.3
2023-01-12T03:18:10.796Z,70.5
2023-01-12T03:19:26.974Z,70.4
2023-01-12T03:20:43.167Z,70.4
2023-01-12T03:21:59.360Z,70.6
2023-01-12T03:23:15.552Z,70.5
2023-01-12T03:24:31.733Z,70.5
2023-01-12T03:25:47.645Z,70.6
2023-01-12T03:27:03.834Z,70.4
2023-01-12T03:28:20.297Z,70.7
2023-01-12T03:29:35.219Z,70.4
2023-01-12T03:30:51.683Z,70.4
2023-01-12T03:32:07.871Z,70.3
2023-01-12T03:33:24.061Z,70.3
2023-01-12T03:34:40.241Z,70.4
2023-01-12T03:35:56.437Z,70.3
2023-01-12T03:37:12.629Z,70.4
2023-01-12T03:38:28.822Z,70.4
2023-01-12T03:39:44.721Z,70.5
2023-01-12T03:41:01.186Z,70.2
2023-01-12T03:42:17.377Z,70.5
2023-01-12T03:43:33.553Z,70.6
2023-01-12T03:44:49.759Z,70.5
2023-01-12T03:46:04.660Z,70.5
2023-01-12T03:47:20.851Z,70.3
2023-01-12T03:48:37.040Z,70.5
2023-01-12T03:49:53.517Z,70.4
2023-01-12T03:51:09.695Z,70.3
2023-01-12T03:52:25.599Z,70.1
2023-01-12T03:53:41.790Z,70.3
2023-01-12T03:54:57.974Z,70.3
2023-01-12T03:56:14.461Z,70.5
2023-01-12T03:57:30.642Z,70.4
2023-01-12T03:58:46.824Z,70.3
2023-01-12T04:00:03.024Z,70.4
2023-01-12T04:01:19.206Z,70.2
2023-01-12T04:02:34.412Z,70.3
2023-01-12T04:03:50.605Z,70.3
2023-01-12T04:05:06.774Z,70.4
2023-01-12T04:06:22.970Z,70.3
2023-01-12T04:07:39.163Z,70.2
2023-01-12T04:08:55.060Z,70.4
2023-01-12T04:10:11.540Z,70.1
2023-01-12T04:11:27.720Z,70.1
2023-01-12T04:12:43.609Z,70.1
2023-01-12T04:14:00.088Z,70.3
2023-01-12T04:15:16.275Z,70.2
2023-01-12T04:16:32.177Z,70.3
2023-01-12T04:17:48.666Z,70.1
2023-01-12T04:19:03.857Z,70.3
2023-01-12T04:20:20.052Z,70.5
2023-01-12T04:21:36.237Z,70.4
2023-01-12T04:22:52.435Z,70.1
2023-01-12T04:24:08.612Z,70.4
2023-01-12T04:25:24.801Z,70.2
2023-01-12T04:26:40.697Z,70.3
2023-01-12T04:27:57.183Z,70.2
2023-01-12T04:29:13.068Z,70.4
2023-01-12T04:30:29.554Z,70.2
2023-01-12T04:31:45.745Z,70.2
2023-01-12T04:33:01.920Z,70.3
2023-01-12T04:34:18.111Z,70.3
2023-01-12T04:35:33.320Z,70.1
2023-01-12T04:36:49.496Z,70.4
2023-01-12T04:38:05.683Z,70.2
2023-01-12T04:39:21.575Z,70.3
2023-01-12T04:40:38.072Z,70.3
2023-01-12T04:41:54.249Z,70.3
2023-01-12T04:43:10.448Z,70.1
2023-01-12T04:44:26.634Z,70.3
2023-01-12T04:45:42.816Z,70.1
2023-01-12T04:46:58.701Z,70.1
2023-01-12T04:48:14.902Z,70.1
2023-01-12T04:49:31.385Z,70.2
2023-01-12T04:50:47.560Z,70.1
2023-01-12T04:52:02.767Z,70.3
2023-01-12T04:53:18.964Z,70.3
2023-01-12T04:54:34.847Z,70.3
2023-01-12T04:55:51.327Z,70.3
2023-01-12T04:57:07.521Z,70.3
2023-01-12T04:58:23.719Z,70.2
2023-01-12T04:59:39.896Z,70.3
2023-01-12T05:00:56.084Z,70.1
2023-01-12T05:02:11.975Z,70
2023-01-12T05:03:28.463Z,70.2
2023-01-12T05:04:44.639Z,70.2
2023-01-12T05:06:00.835Z,70
2023-01-12T05:07:16.722Z,70.2
2023-01-12T05:08:32.234Z,70.1
2023-01-12T05:09:48.121Z,70.2
2023-01-12T05:11:04.597Z,70.1
2023-01-12T05:12:20.785Z,70
2023-01-12T05:13:36.973Z,70.2
2023-01-12T05:14:53.171Z,70.2
2023-01-12T05:16:09.342Z,70.1
2023-01-12T05:17:25.240Z,70.1
2023-01-12T05:18:41.733Z,70.1
2023-01-12T05:19:57.919Z,70
2023-01-12T05:21:14.095Z,70.2
2023-01-12T05:22:30.284Z,70.1
2023-01-12T05:23:46.478Z,70.3
2023-01-12T05:25:01.688Z,70.1
2023-01-12T05:26:17.874Z,70.1
2023-01-12T05:27:34.060Z,70.2
2023-01-12T05:28:50.234Z,70.1
2023-01-12T05:30:06.439Z,70.1
2023-01-12T05:31:22.613Z,70.1
2023-01-12T05:32:38.490Z,69.9
2023-01-12T05:33:54.998Z,70
2023-01-12T05:35:11.179Z,70
2023-01-12T05:36:27.361Z,70.1
2023-01-12T05:37:43.258Z,70.1
2023-01-12T05:38:59.734Z,70
2023-01-12T05:40:15.622Z,70
2023-01-12T05:41:31.138Z,70.3
2023-01-12T05:42:47.326Z,70
2023-01-12T05:44:03.505Z,69.9
2023-01-12T05:45:19.378Z,70.1
2023-01-12T05:46:35.881Z,70.1
2023-01-12T05:47:51.754Z,70
2023-01-12T05:49:08.268Z,69.9
2023-01-12T05:50:24.440Z,69.9
2023-01-12T05:51:40.639Z,69.9
2023-01-12T05:52:56.827Z,70
2023-01-12T05:54:12.707Z,70.1
2023-01-12T05:55:28.894Z,70
2023-01-12T05:56:45.385Z,70
2023-01-12T05:58:00.592Z,69.9
2023-01-12T05:59:16.776Z,69.9
2023-01-12T06:00:32.964Z,69.9
2023-01-12T06:01:49.145Z,69.9
2023-01-12T06:03:05.032Z,69.9
2023-01-12T06:04:21.210Z,70
2023-01-12T06:05:37.719Z,69.9
2023-01-12T06:06:53.913Z,69.9
2023-01-12T06:08:10.100Z,69.9
2023-01-12T06:09:26.285Z,70
2023-01-12T06:10:42.157Z,69.7
2023-01-12T06:11:58.662Z,69.9
2023-01-12T06:13:14.838Z,69.9
2023-01-12T06:14:30.051Z,69.9
2023-01-12T06:15:45.925Z,70
2023-01-12T06:17:02.425Z,69.9
2023-01-12T06:18:18.298Z,69.8
2023-01-12T06:19:34.801Z,70
2023-01-12T06:20:50.664Z,70.1
2023-01-12T06:22:07.160Z,69.7
2023-01-12T06:23:23.051Z,69.9
2023-01-12T06:24:39.540Z,70
2023-01-12T06:25:55.407Z,70
2023-01-12T06:27:11.924Z,70.2
2023-01-12T06:28:28.110Z,69.8
2023-01-12T06:29:44.300Z,69.9
2023-01-12T06:30:59.504Z,70
2023-01-12T06:32:15.689Z,69.7
2023-01-12T06:33:31.878Z,70
2023-01-12T06:34:48.054Z,70
2023-01-12T06:36:04.246Z,70
2023-01-12T06:37:20.431Z,69.9
2023-01-12T06:38:36.630Z,69.9
2023-01-12T06:39:52.496Z,69.8
2023-01-12T06:41:08.996Z,69.8
2023-01-12T06:42:24.861Z,70
2023-01-12T06:43:41.052Z,69.9
2023-01-12T06:44:57.559Z,69.8
2023-01-12T06:46:13.756Z,70
2023-01-12T06:47:28.955Z,70.2
2023-01-12T06:48:44.816Z,69.9
2023-01-12T06:50:00.998Z,70
2023-01-12T06:51:17.527Z,70.1
2023-01-12T06:52:33.701Z,70.1
2023-01-12T06:53:49.895Z,70
2023-01-12T06:55:04.770Z,69.7
2023-01-12T06:56:20.964Z,70
2023-01-12T06:57:37.158Z,69.8
2023-01-12T06:58:53.664Z,69.7
2023-01-12T07:00:09.857Z,70.1
2023-01-12T07:01:26.033Z,69.9
2023-01-12T07:02:42.235Z,69.9
2023-01-12T07:03:58.092Z,70.1
2023-01-12T07:05:14.270Z,70
2023-01-12T07:06:30.794Z,69.9
2023-01-12T07:07:46.972Z,70.1
2023-01-12T07:09:03.166Z,70.2
2023-01-12T07:10:19.354Z,70
2023-01-12T07:11:34.221Z,70
2023-01-12T07:12:50.742Z,70.1
2023-01-12T07:14:06.935Z,69.8
2023-01-12T07:15:23.119Z,69.9
2023-01-12T07:16:39.314Z,69.8
2023-01-12T07:17:55.490Z,69.7
2023-01-12T07:19:11.350Z,69.6
2023-01-12T07:20:27.543Z,69.8
2023-01-12T07:21:44.050Z,70
2023-01-12T07:23:00.240Z,69.8
2023-01-12T07:24:16.107Z,70.1
2023-01-12T07:25:32.614Z,69.9
2023-01-12T07:26:48.481Z,70.1
2023-01-12T07:28:03.999Z,70.1
2023-01-12T07:29:20.000Z,70
2023-01-12T07:30:36.374Z,70
2023-01-12T07:31:52.000Z,69.9
2023-01-12T07:33:08.422Z,69.9
2023-01-12T07:34:24.615Z,70
2023-01-12T07:35:41.132Z,70.2
2023-01-12T07:36:57.324Z,69.7
2023-01-12T07:38:13.504Z,69.7
2023-01-12T07:39:29.703Z,69.8
2023-01-12T07:40:45.880Z,70
2023-01-12T07:42:01.745Z,69.9
2023-01-12T07:43:18.264Z,69.9
2023-01-12T07:44:33.458Z,69.9
2023-01-12T07:45:49.657Z,69.4
2023-01-12T07:47:05.841Z,69.5
2023-01-12T07:48:22.022Z,70.2
2023-01-12T07:49:37.879Z,69.6
2023-01-12T07:50:54.390Z,69.7
2023-01-12T07:52:10.591Z,69.6
2023-01-12T07:53:26.439Z,69.8
2023-01-12T07:54:42.633Z,69.7
2023-01-12T07:55:59.139Z,69.9
2023-01-12T07:57:14.994Z,69.8
2023-01-12T07:58:31.523Z,69.9
2023-01-12T07:59:47.703Z,69.8
2023-01-12T08:01:02.905Z,69.6
2023-01-12T08:02:19.112Z,69.6
2023-01-12T08:03:35.292Z,69.3
2023-01-12T08:04:51.148Z,69.7
2023-01-12T08:06:07.674Z,69.4
2023-01-12T08:07:23.847Z,69.5
2023-01-12T08:08:40.041Z,69.4
2023-01-12T08:09:56.231Z,69.4
2023-01-12T08:11:12.072Z,69.6
2023-01-12T08:12:28.255Z,69.4
2023-01-12T08:13:44.788Z,69.4
2023-01-12T08:15:00.977Z,69.6
2023-01-12T08:16:17.160Z,69.4
2023-01-12T08:17:32.362Z,69.5
2023-01-12T08:18:48.217Z,69.5
2023-01-12T08:20:04.408Z,69.4
2023-01-12T08:21:20.935Z,69.4
2023-01-12T08:22:37.116Z,69.4
2023-01-12T08:23:53.315Z,69.5
2023-01-12T08:25:09.158Z,69.2
2023-01-12T08:26:25.327Z,69.1
2023-01-12T08:27:41.531Z,69.4
2023-01-12T08:28:58.052Z,69.3
2023-01-12T08:30:14.234Z,69.3
2023-01-12T08:31:30.091Z,69.3
2023-01-12T08:32:46.628Z,69.3
2023-01-12T08:34:01.812Z,69.2
2023-01-12T08:35:17.660Z,69.4
2023-01-12T08:36:34.192Z,69.4
2023-01-12T08:37:50.042Z,69.2
2023-01-12T08:39:06.564Z,69.3
2023-01-12T08:40:22.404Z,69.1
2023-01-12T08:41:38.948Z,69.2
2023-01-12T08:42:54.780Z,69.4
2023-01-12T08:44:11.314Z,69.3
2023-01-12T08:45:27.516Z,69.5
2023-01-12T08:46:43.705Z,69.3
2023-01-12T08:47:59.538Z,69.3
2023-01-12T08:49:16.064Z,69
2023-01-12T08:50:30.933Z,69.2
2023-01-12T08:51:47.456Z,69
2023-01-12T08:53:03.660Z,69.1
2023-01-12T08:54:19.847Z,69.1
2023-01-12T08:55:36.030Z,69
2023-01-12T08:56:52.206Z,69.2
2023-01-12T08:58:08.042Z,69.1
2023-01-12T08:59:24.592Z,69
2023-01-12T09:00:40.000Z,69
2023-01-12T09:01:56.964Z,68.8
2023-01-12T09:03:13.153Z,68.9
2023-01-12T09:04:29.328Z,69.1
2023-01-12T09:05:45.165Z,68.9
2023-01-12T09:07:00.727Z,69
2023-01-12T09:08:16.567Z,68.9
2023-01-12T09:09:32.750Z,68.8
2023-01-12T09:10:49.295Z,69
2023-01-12T09:12:05.471Z,68.8
2023-01-12T09:13:21.320Z,69
2023-01-12T09:14:37.852Z,68.8
2023-01-12T09:15:54.049Z,68.8
2023-01-12T09:17:10.234Z,68.8
2023-01-12T09:18:26.411Z,69
2023-01-12T09:19:42.598Z,68.9
2023-01-12T09:20:58.793Z,68.9
2023-01-12T09:22:14.968Z,68.9
2023-01-12T09:23:29.834Z,68.8
2023-01-12T09:24:46.002Z,68.9
2023-01-12T09:26:02.554Z,68.9
2023-01-12T09:27:18.747Z,68.9
2023-01-12T09:28:34.574Z,68.9
2023-01-12T09:29:51.109Z,69.2
2023-01-12T09:31:06.946Z,69
2023-01-12T09:32:23.494Z,69.1
2023-01-12T09:33:39.669Z,69
2023-01-12T09:34:55.857Z,68.8
2023-01-12T09:36:11.686Z,68.9
2023-01-12T09:37:27.881Z,68.8
2023-01-12T09:38:44.423Z,68.5
2023-01-12T09:39:59.282Z,68.6
2023-01-12T09:41:15.819Z,68.6
2023-01-12T09:42:32.009Z,68.7
2023-01-12T09:43:48.086Z,68.7
2023-01-12T09:45:04.384Z,68.6
2023-01-12T09:46:20.560Z,68.5
2023-01-12T09:47:36.764Z,68.5
2023-01-12T09:48:52.937Z,68.5
2023-01-12T09:50:09.131Z,68.3
2023-01-12T09:51:25.206Z,68.6
2023-01-12T09:52:41.504Z,68.6
2023-01-12T09:53:57.685Z,68.4
2023-01-12T09:55:13.883Z,68.5
2023-01-12T09:56:29.075Z,68.5
2023-01-12T09:57:45.269Z,68.6
2023-01-12T09:59:01.358Z,68.6
2023-01-12T10:00:17.656Z,68.5
2023-01-12T10:01:33.843Z,68.5
2023-01-12T10:02:49.917Z,68.5
2023-01-12T10:04:06.214Z,68.5
2023-01-12T10:05:22.404Z,68.4
2023-01-12T10:06:38.473Z,68.4
2023-01-12T10:07:54.765Z,68.3
2023-01-12T10:09:10.953Z,68.3
2023-01-12T10:10:27.137Z,68.4
2023-01-12T10:11:43.335Z,68.3
2023-01-12T10:12:58.534Z,68.4
2023-01-12T10:14:14.615Z,68.4
2023-01-12T10:15:30.920Z,68.1
2023-01-12T10:16:47.097Z,68.2
2023-01-12T10:18:03.295Z,68.2
2023-01-12T10:19:19.465Z,68.1
2023-01-12T10:20:35.663Z,68.1
2023-01-12T10:21:51.733Z,67.8
2023-01-12T10:23:08.038Z,67.7
2023-01-12T10:24:24.216Z,67.8
2023-01-12T10:25:40.421Z,67.8
2023-01-12T10:26:56.606Z,68.1
2023-01-12T10:28:12.778Z,68
2023-01-12T10:29:27.882Z,68.2
2023-01-12T10:30:44.063Z,68.2
2023-01-12T10:32:00.369Z,68.1
2023-01-12T10:33:16.546Z,68.3
2023-01-12T10:34:32.735Z,68.2
2023-01-12T10:35:48.919Z,68.1
2023-01-12T10:37:04.995Z,68.3
2023-01-12T10:38:21.311Z,68.4
2023-01-12T10:39:37.494Z,68.4
2023-01-12T10:40:53.669Z,68.3
2023-01-12T10:42:09.869Z,68.2
2023-01-12T10:43:26.050Z,68.3
2023-01-12T10:44:42.132Z,68.2
2023-01-12T10:45:57.319Z,68.5
2023-01-12T10:47:13.506Z,68.3
2023-01-12T10:48:29.820Z,68.5
2023-01-12T10:49:46.007Z,68.2
2023-01-12T10:51:02.198Z,68.3
2023-01-12T10:52:18.263Z,68.5
2023-01-12T10:53:34.573Z,68.2
2023-01-12T10:54:50.747Z,68.5
2023-01-12T10:56:06.934Z,68.6
2023-01-12T10:57:23.002Z,68.6
2023-01-12T10:58:39.195Z,68.5
2023-01-12T10:59:55.382Z,68.5
2023-01-12T11:01:11.700Z,68.4
2023-01-12T11:02:26.899Z,68.4
2023-01-12T11:03:43.088Z,68.4
2023-01-12T11:04:59.270Z,68.2
2023-01-12T11:06:15.337Z,68.4
2023-01-12T11:07:31.535Z,68.3
2023-01-12T11:08:47.841Z,68.4
2023-01-12T11:10:03.037Z,68.2
2023-01-12T11:11:19.233Z,68.2
2023-01-12T11:12:35.411Z,68.1
2023-01-12T11:13:51.478Z,68.1
2023-01-12T11:15:07.665Z,68.3
2023-01-12T11:16:23.982Z,68.3
2023-01-12T11:17:40.156Z,68.3
2023-01-12T11:18:56.348Z,68.3
2023-01-12T11:20:12.547Z,68.3
2023-01-12T11:21:28.600Z,68.5
2023-01-12T11:22:44.787Z,68.5
2023-01-12T11:24:01.102Z,68.5
2023-01-12T11:25:17.302Z,68.5
2023-01-12T11:26:32.493Z,68.6
2023-01-12T11:27:48.693Z,68.5
2023-01-12T11:29:04.872Z,68.6
2023-01-12T11:30:20.937Z,68.6
2023-01-12T11:31:37.257Z,68.6
2023-01-12T11:32:53.438Z,68.6
2023-01-12T11:34:09.640Z,68.6
2023-01-12T11:35:25.816Z,68.7
2023-01-12T11:36:42.008Z,68.7
2023-01-12T11:37:58.083Z,68.6
2023-01-12T11:39:14.397Z,68.8
2023-01-12T11:40:30.589Z,68.7
2023-01-12T11:41:46.772Z,68.8
2023-01-12T11:43:01.858Z,68.7
2023-01-12T11:44:18.153Z,68.8
2023-01-12T11:45:34.229Z,68.7
2023-01-12T11:46:50.547Z,68.7
2023-01-12T11:48:06.725Z,68.7
2023-01-12T11:49:22.925Z,68.7
2023-01-12T11:50:39.114Z,68.8
2023-01-12T11:51:55.303Z,68.8
2023-01-12T11:53:11.490Z,68.8
2023-01-12T11:54:27.556Z,68.8
2023-01-12T11:55:43.000Z,68.7
2023-01-12T11:57:00.052Z,68.7
2023-01-12T11:58:16.118Z,68.7
2023-01-12T11:59:31.447Z,68.7
2023-01-12T12:00:47.507Z,68.5
2023-01-12T12:02:03.818Z,68.6
2023-01-12T12:03:20.008Z,68.7
2023-01-12T12:04:36.207Z,68.7
2023-01-12T12:05:52.394Z,68.7
2023-01-12T12:07:08.581Z,68.8
2023-01-12T12:08:24.768Z,68.8
2023-01-12T12:09:40.820Z,68.7
2023-01-12T12:10:57.152Z,68.7
2023-01-12T12:12:13.198Z,68.6
2023-01-12T12:13:29.534Z,68.6
2023-01-12T12:14:45.703Z,68.6
2023-01-12T12:16:00.786Z,68.8
2023-01-12T12:17:17.117Z,68.6
2023-01-12T12:18:33.287Z,68.6
2023-01-12T12:19:49.486Z,68.4
2023-01-12T12:21:05.669Z,68.6
2023-01-12T12:22:21.861Z,68.7
2023-01-12T12:23:37.000Z,68.8
2023-01-12T12:24:54.241Z,68.6
2023-01-12T12:26:10.291Z,68.7
2023-01-12T12:27:26.623Z,68.7
2023-01-12T12:28:42.816Z,68.7
2023-01-12T12:29:59.003Z,68.8
2023-01-12T12:31:15.048Z,68.7
2023-01-12T12:32:30.246Z,68.8
2023-01-12T12:33:46.583Z,68.8
2023-01-12T12:35:02.772Z,68.9
2023-01-12T12:36:18.964Z,68.8
2023-01-12T12:38:51.198Z,68.8
2023-01-12T12:40:07.533Z,68.7
2023-01-12T12:41:23.710Z,68.8
2023-01-12T12:42:39.911Z,68.7
2023-01-12T12:43:55.964Z,68.6
2023-01-12T12:45:12.278Z,68.6
2023-01-12T12:46:28.470Z,68.6
2023-01-12T12:47:44.655Z,68.5
2023-01-12T12:48:59.728Z,68.5
2023-01-12T12:50:16.062Z,68.6
2023-01-12T12:51:32.252Z,68.7
2023-01-12T12:52:48.444Z,68.6
2023-01-12T12:54:04.475Z,68.6
2023-01-12T12:55:20.809Z,68.6
2023-01-12T12:56:36.863Z,68.8
2023-01-12T12:57:53.046Z,68.6
2023-01-12T12:59:09.378Z,68.6
2023-01-12T13:00:25.570Z,68.7
2023-01-12T13:01:41.611Z,68.7
2023-01-12T13:02:57.944Z,68.7
2023-01-12T13:04:14.146Z,68.7
2023-01-12T13:05:29.347Z,68.5
2023-01-12T13:06:45.537Z,68.7
2023-01-12T13:08:01.720Z,68.7
2023-01-12T13:09:17.770Z,68.7
2023-01-12T13:10:34.102Z,68.5
2023-01-12T13:11:50.283Z,68.6
2023-01-12T13:13:06.485Z,68.7
2023-01-12T13:14:22.670Z,68.5
2023-01-12T13:15:38.710Z,68.7
2023-01-12T13:16:54.897Z,68.6
2023-01-12T13:18:11.225Z,68.7
2023-01-12T13:19:27.421Z,68.8
2023-01-12T13:20:43.605Z,68.6
2023-01-12T13:21:58.811Z,68.5
2023-01-12T13:23:15.000Z,68.5
2023-01-12T13:24:31.050Z,68.6
2023-01-12T13:25:47.394Z,68.5
2023-01-12T13:27:03.576Z,68.7
2023-01-12T13:28:19.762Z,68.5
2023-01-12T13:29:35.806Z,68.6
2023-01-12T13:30:52.144Z,68.5
2023-01-12T13:32:08.190Z,68.7
2023-01-12T13:33:24.526Z,68.6
2023-01-12T13:34:40.564Z,68.6
2023-01-12T13:35:56.893Z,68.6
2023-01-12T13:37:13.082Z,68.6
2023-01-12T13:38:28.286Z,68.7
2023-01-12T13:39:44.338Z,68.6
2023-01-12T13:41:00.683Z,68.7
2023-01-12T13:42:16.857Z,68.8
2023-01-12T13:43:33.056Z,68.6
2023-01-12T13:44:49.251Z,68.5
2023-01-12T13:46:05.427Z,68.5
2023-01-12T13:47:21.468Z,68.6
2023-01-12T13:48:37.814Z,68.6
2023-01-12T13:49:53.990Z,68.7
2023-01-12T13:51:10.186Z,68.7
2023-01-12T13:52:26.383Z,68.8
2023-01-12T13:53:42.572Z,68.8
2023-01-12T13:54:57.617Z,68.7
2023-01-12T13:56:13.953Z,68.7
2023-01-12T13:57:30.142Z,68.8
2023-01-12T13:58:46.349Z,68.7
2023-01-12T14:00:02.374Z,68.6
2023-01-12T14:01:18.571Z,68.7
2023-01-12T14:02:34.904Z,68.6
2023-01-12T14:03:50.933Z,68.7
2023-01-12T14:05:07.289Z,68.8
2023-01-12T14:06:23.326Z,68.8
2023-01-12T14:07:39.665Z,68.8
2023-01-12T14:08:55.847Z,68.7
2023-01-12T14:10:11.878Z,68.8
2023-01-12T14:11:27.238Z,68.7
2023-01-12T14:12:43.443Z,68.7
2023-01-12T14:13:59.617Z,68.7
2023-01-12T14:15:15.811Z,68.8
2023-01-12T14:16:31.998Z,68.8
2023-01-12T14:17:48.044Z,68.9
2023-01-12T14:19:04.379Z,68.7
2023-01-12T14:20:20.580Z,68.7
2023-01-12T14:21:36.592Z,68.7
2023-01-12T14:22:52.947Z,68.7
2023-01-12T14:24:09.133Z,68.7
2023-01-12T14:25:25.162Z,68.6
2023-01-12T14:26:41.528Z,68.8
2023-01-12T14:27:56.556Z,68.7
2023-01-12T14:29:12.909Z,68.7
2023-01-12T14:30:29.109Z,68.8
2023-01-12T14:31:45.293Z,68.8
2023-01-12T14:33:01.327Z,68.6
2023-01-12T14:34:17.499Z,68.8
2023-01-12T14:35:33.696Z,68.7
2023-01-12T14:36:50.056Z,68.6
2023-01-12T14:38:06.247Z,68.7
2023-01-12T14:39:22.423Z,68.7
2023-01-12T14:40:38.449Z,68.7
2023-01-12T14:41:54.814Z,68.8
2023-01-12T14:43:10.986Z,68.8
2023-01-12T14:44:26.197Z,68.8
2023-01-12T14:45:42.390Z,68.8
2023-01-12T14:46:58.588Z,68.7
2023-01-12T14:48:14.596Z,68.7
2023-01-12T14:49:30.956Z,68.8
2023-01-12T14:50:47.153Z,68.6
2023-01-12T14:52:03.332Z,68.8
2023-01-12T14:53:19.361Z,68.8
2023-01-12T14:54:35.724Z,68.8
2023-01-12T14:55:51.731Z,68.8
2023-01-12T14:57:08.100Z,68.7
2023-01-12T14:58:24.285Z,68.8
2023-01-12T14:59:40.474Z,68.8
2023-01-12T15:00:55.678Z,68.7
2023-01-12T15:02:11.868Z,68.8
2023-01-12T15:03:27.880Z,68.8
2023-01-12T15:04:44.069Z,68.8
2023-01-12T15:06:00.273Z,68.9
2023-01-12T15:07:16.614Z,68.7
2023-01-12T15:08:32.821Z,68.8
2023-01-12T15:09:49.010Z,68.9
2023-01-12T15:11:05.029Z,68.9
2023-01-12T15:12:21.384Z,68.8
2023-01-12T15:13:37.567Z,68.8
2023-01-12T15:14:53.766Z,68.7
2023-01-12T15:16:09.958Z,68.7
2023-01-12T15:17:25.164Z,68.7
2023-01-12T15:18:41.176Z,68.8
2023-01-12T15:19:57.349Z,68.9
2023-01-12T15:21:13.732Z,68.7
2023-01-12T15:22:29.732Z,68.8
2023-01-12T15:23:46.112Z,68.7
2023-01-12T15:25:01.322Z,68.7
2023-01-12T15:26:17.320Z,68.8
2023-01-12T15:27:33.696Z,68.9
2023-01-12T15:28:49.881Z,68.6
2023-01-12T15:30:05.890Z,68.8
2023-01-12T15:31:22.261Z,68.8
2023-01-12T15:32:38.447Z,68.8
2023-01-12T15:33:54.470Z,68.8
2023-01-12T15:35:10.657Z,68.6
2023-01-12T15:36:27.013Z,68.8
2023-01-12T15:37:43.029Z,68.9
2023-01-12T15:38:59.228Z,68.8
2023-01-12T15:40:15.585Z,68.9
2023-01-12T15:41:30.622Z,68.8
2023-01-12T15:42:46.988Z,68.8
2023-01-12T15:44:03.172Z,68.7
2023-01-12T15:45:19.358Z,68.9
2023-01-12T15:46:35.556Z,68.8
2023-01-12T15:47:51.739Z,68.8
2023-01-12T15:49:07.754Z,68.7
2023-01-12T15:50:24.113Z,68.8
2023-01-12T15:51:40.302Z,68.8
2023-01-12T15:52:56.498Z,68.7
2023-01-12T15:54:12.684Z,68.8
2023-01-12T15:55:28.871Z,68.7
2023-01-12T15:56:44.873Z,68.8
2023-01-12T15:58:00.258Z,68.7
2023-01-12T15:59:16.455Z,68.8
2023-01-12T16:00:32.638Z,68.7
2023-01-12T16:01:48.845Z,68.8
2023-01-12T16:03:05.035Z,68.8
2023-01-12T16:04:21.207Z,68.9
2023-01-12T16:05:37.398Z,68.9
2023-01-12T16:06:53.593Z,68.7
2023-01-12T16:08:09.787Z,68.6
2023-01-12T16:09:25.969Z,68.8
2023-01-12T16:10:41.970Z,68.8
2023-01-12T16:11:58.158Z,68.7
2023-01-12T16:13:14.533Z,68.7
2023-01-12T16:14:29.747Z,68.7
2023-01-12T16:15:45.942Z,68.8
2023-01-12T16:17:02.129Z,68.8
2023-01-12T16:18:18.321Z,68.8
2023-01-12T16:19:34.319Z,68.9
2023-01-12T16:20:50.693Z,68.7
2023-01-12T16:22:06.880Z,68.8
2023-01-12T16:23:23.069Z,68.8
2023-01-12T16:24:39.259Z,68.9
2023-01-12T16:25:55.456Z,68.9
2023-01-12T16:27:11.451Z,68.8
2023-01-12T16:28:27.821Z,68.9
2023-01-12T16:29:43.816Z,68.9
2023-01-12T16:30:59.219Z,68.9
2023-01-12T16:32:15.404Z,68.9
2023-01-12T16:33:31.600Z,69
2023-01-12T16:34:47.797Z,68.9
2023-01-12T16:36:03.794Z,69
2023-01-12T16:37:20.161Z,68.9
2023-01-12T16:38:36.347Z,68.9
2023-01-12T16:39:52.547Z,68.9
2023-01-12T16:41:08.543Z,68.8
2023-01-12T16:42:24.741Z,69
2023-01-12T16:43:41.109Z,69
2023-01-12T16:44:57.113Z,68.9
2023-01-12T16:46:13.485Z,68.9
2023-01-12T16:47:28.699Z,68.9
2023-01-12T16:48:44.893Z,68.9
2023-01-12T16:50:00.875Z,68.9
2023-01-12T16:51:17.265Z,68.8
2023-01-12T16:52:33.445Z,68.8
2023-01-12T16:53:49.641Z,68.9
2023-01-12T16:55:05.828Z,68.8
2023-01-12T16:56:21.826Z,68.9
2023-01-12T16:57:38.007Z,68.8
2023-01-12T16:58:54.407Z,68.8